메인 페이지
METAR-TAF:

METAR-TAF

공항 :

마닐라, 필리핀

니노이 아키노 국제공항

위도: 14-31N, 경도: 121-00E, 고도: 14m

현재 날씨관측

예보는 1 시간 1분 전, 00:00시(UTC)에 발표되었습니다.
동북동4kt
온도 27°C
습도 79%
기압 1014 hPa
시정 10km 이상
고도 2300ft 상공 구름 보통
고도 10000ft 상공 구름 많음

METAR: RPLL 180000Z 07004KT 9999 SCT023 BKN100 27/23 Q1014 NOSIG RMK A2994

시각: 09:01 (01:01 UTC)

예보

예보는 2 시간 1분 전, 23:00시(UTC)에 발표되었습니다.
예보 대상 시간: 18일 00시부터 19일 06시까지 (UTC)
동북동7kt
시정 10km 이상
고도 2500ft 상공 구름 조금
일시적
18일 00시부터 18일 06시까지 (UTC)
동북동12kt
고도 2500ft 상공 구름 조금
고도 30000ft 상공 구름 보통
일시적
18일 06시부터 18일 12시까지 (UTC)
동북동12kt
고도 2300ft 상공 구름 조금
고도 10000ft 상공 구름 보통

TAF: RPLL 172300Z 1800/1906 06007KT 9999 FEW025 TX33/1806Z TN25/1821Z TEMPO 1800/1806 06012KT FEW025 SCT300 TEMPO 1806/1812 06012KT FEW023 SCT100

4,000개 이상의 공항 관측 자료 및 예보 (METAR 및 TAF 보고).

지도상에서 검색 가능한 기상관측소가 노란 점과 빨간 점으로 표시되어 있습니다.

기상관측소 명을 보려면 표시 위로 마우스를 이동하세요.

날씨 관측과 예보를 보려면 클릭하세요.

지도 변경 : 확대하려면 엑스 표시가 있는 녹색 버튼, 축소하려면 빼기 표시가 있는 녹색 버튼, 다음 페이지의 지도를 보려면 녹색 화살표를 클릭하세요.


METAR-TAF: